Time;durP1;ratioP1;P1;durP2;ratioP2;P2;SDS_P1;SDS_P2;PMS_P1;PMS_P2;Temp;Humidity;BMP_temperature;BMP_pressure;BME280_temperature;BME280_humidity;BME280_pressure;Samples;Min_cycle;Max_cycle;Signal;HPM_P1;HPM_P2
2021/12/11 00:02:18;;;;;;;;;;;7.80;99.90;;;;;;5071186;28;19919;-77
2021/12/11 00:04:46;;;;;;;;;;;7.80;99.90;;;;;;5069710;28;19935;-75
2021/12/11 00:07:14;;;;;;;;;;;7.80;99.90;;;;;;5069872;28;20390;-76
2021/12/11 00:09:46;;;;;;;;;;;7.80;99.90;;;;;;5071145;28;19999;-76
2021/12/11 00:12:25;;;;;;;;;;;7.70;99.90;;;;;;5071021;28;20339;-76
2021/12/11 00:14:57;;;;;;;;;;;7.70;99.90;;;;;;5071242;28;19919;-76
2021/12/11 00:17:26;;;;;;;;;;;7.80;99.90;;;;;;5070845;28;19905;-76
2021/12/11 00:19:51;;;;;;;;;;;7.80;99.90;;;;;;5069178;28;20237;-75
2021/12/11 00:22:19;;;;;;;;;;;7.80;99.90;;;;;;5070972;28;19940;-76
2021/12/11 00:24:45;;;;;;;;;;;7.80;99.90;;;;;;5071599;28;20263;-76
2021/12/11 00:27:12;;;;;;;;;;;7.80;99.90;;;;;;5069785;28;19904;-76
2021/12/11 00:29:38;;;;;;;;;;;7.80;99.90;;;;;;5072458;28;20260;-75
2021/12/11 00:32:07;;;;;;;;;;;7.90;99.90;;;;;;5074829;28;19919;-76
2021/12/11 00:34:34;;;;;;;;;;;7.90;99.90;;;;;;5074709;28;19927;-75
2021/12/11 00:37:02;;;;;;;;;;;7.90;99.90;;;;;;5074798;28;20326;-74
2021/12/11 00:39:28;;;;;;;;;;;7.90;99.90;;;;;;5073646;28;19913;-75
2021/12/11 00:41:55;;;;;;;;;;;7.80;99.90;;;;;;5074478;28;19904;-77
2021/12/11 00:44:38;;;;;;;;;;;7.90;99.90;;;;;;5074849;28;20252;-76
2021/12/11 00:47:05;;;;;;;;;;;7.90;99.90;;;;;;5075089;28;19908;-76
2021/12/11 00:49:31;;;;;;;;;;;7.90;99.90;;;;;;5074270;28;20002;-76
2021/12/11 00:51:57;;;;;;;;;;;7.90;99.90;;;;;;5073247;28;19908;-75
2021/12/11 00:54:23;;;;;;;;;;;7.90;99.90;;;;;;5074636;28;19919;-75
2021/12/11 00:56:49;;;;;;;;;;;7.90;99.90;;;;;;5074201;28;20235;-76
2021/12/11 00:59:17;;;;;;;;;;;7.90;99.90;;;;;;5074550;28;19912;-75
2021/12/11 01:01:53;;;;;;;;;;;7.90;99.90;;;;;;5073112;28;19905;-75
2021/12/11 01:04:24;;;;;;;;;;;7.90;99.90;;;;;;5074923;28;20298;-76
2021/12/11 01:07:00;;;;;;;;;;;7.90;99.90;;;;;;5073814;28;19908;-76
2021/12/11 01:09:38;;;;;;;;;;;7.90;99.90;;;;;;5073319;28;20286;-76
2021/12/11 01:12:12;;;;;;;;;;;7.90;99.90;;;;;;5073571;28;19912;-76
2021/12/11 01:14:49;;;;;;;;;;;7.90;99.90;;;;;;5074510;28;19952;-76
2021/12/11 01:17:21;;;;;;;;;;;7.90;99.90;;;;;;5074625;28;20322;-77
2021/12/11 01:19:49;;;;;;;;;;;7.90;99.90;;;;;;5074356;28;20003;-75
2021/12/11 01:22:31;;;;;;;;;;;7.90;99.90;;;;;;5074407;28;19908;-76
2021/12/11 01:24:56;;;;;;;;;;;7.90;99.90;;;;;;5072373;28;19917;-76
2021/12/11 01:27:23;;;;;;;;;;;7.90;99.90;;;;;;5073833;28;19914;-76
2021/12/11 01:29:56;;;;;;;;;;;7.90;99.90;;;;;;5074044;28;19912;-76
2021/12/11 01:32:22;;;;;;;;;;;7.90;99.90;;;;;;5072590;28;19908;-76
2021/12/11 01:34:48;;;;;;;;;;;7.90;99.90;;;;;;5073797;28;19916;-76
2021/12/11 01:37:14;;;;;;;;;;;7.90;99.90;;;;;;5073866;28;19905;-76
2021/12/11 01:39:40;;;;;;;;;;;7.90;99.90;;;;;;5064972;28;20433;-75
2021/12/11 01:42:14;;;;;;;;;;;7.90;99.90;;;;;;5051378;28;19909;-76
2021/12/11 01:44:41;;;;;;;;;;;7.90;99.90;;;;;;5064523;28;20030;-75
2021/12/11 01:47:09;;;;;;;;;;;7.90;99.90;;;;;;5073998;28;19908;-75
2021/12/11 01:49:36;;;;;;;;;;;8.00;99.90;;;;;;5073740;28;19927;-76
2021/12/11 01:52:07;;;;;;;;;;;8.00;99.90;;;;;;5074140;28;19912;-76
2021/12/11 01:54:37;;;;;;;;;;;8.00;99.90;;;;;;5073728;28;19916;-77
2021/12/11 01:57:10;;;;;;;;;;;8.00;99.90;;;;;;5073152;28;19913;-76
2021/12/11 01:59:37;;;;;;;;;;;8.00;99.90;;;;;;5072457;28;19928;-76
2021/12/11 02:02:05;;;;;;;;;;;8.00;99.90;;;;;;5074195;28;20280;-76
2021/12/11 02:04:33;;;;;;;;;;;8.00;99.90;;;;;;5074233;28;19967;-77
2021/12/11 02:07:07;;;;;;;;;;;8.00;99.90;;;;;;5074135;28;19904;-76
2021/12/11 02:09:36;;;;;;;;;;;8.00;99.90;;;;;;5072248;28;19959;-75
2021/12/11 02:12:15;;;;;;;;;;;8.00;99.90;;;;;;5073766;28;19908;-75
2021/12/11 02:14:45;;;;;;;;;;;8.00;99.90;;;;;;5074110;28;20276;-76
2021/12/11 02:17:27;;;;;;;;;;;8.00;99.90;;;;;;5072643;28;20362;-76
2021/12/11 02:19:54;;;;;;;;;;;8.00;99.90;;;;;;5071374;28;19955;-76
2021/12/11 02:22:24;;;;;;;;;;;8.00;99.90;;;;;;5072280;28;20033;-76
2021/12/11 02:24:52;;;;;;;;;;;8.00;99.90;;;;;;5073782;28;20001;-76
2021/12/11 02:27:19;;;;;;;;;;;8.00;99.90;;;;;;5073611;28;19904;-76
2021/12/11 02:30:00;;;;;;;;;;;8.00;99.90;;;;;;5071599;28;19916;-76
2021/12/11 02:32:39;;;;;;;;;;;8.00;99.90;;;;;;5073295;28;19944;-75
2021/12/11 02:35:04;;;;;;;;;;;8.00;99.90;;;;;;5071589;28;19951;-77
2021/12/11 02:37:43;;;;;;;;;;;8.00;99.90;;;;;;5073082;28;19911;-74
2021/12/11 02:40:29;;;;;;;;;;;8.00;99.90;;;;;;5070676;28;20274;-75
2021/12/11 02:42:58;;;;;;;;;;;8.00;99.90;;;;;;5072603;28;19922;-76
2021/12/11 02:45:26;;;;;;;;;;;7.90;99.90;;;;;;5072293;28;19905;-76
2021/12/11 02:47:56;;;;;;;;;;;8.00;99.90;;;;;;5071499;28;20008;-76
2021/12/11 02:50:21;;;;;;;;;;;8.00;99.90;;;;;;5070534;28;20406;-76
2021/12/11 02:52:53;;;;;;;;;;;8.00;99.90;;;;;;5071068;28;19916;-77
2021/12/11 02:55:23;;;;;;;;;;;8.00;99.90;;;;;;5070831;28;20387;-77
2021/12/11 02:57:50;;;;;;;;;;;7.90;99.90;;;;;;5071890;28;20326;-75
2021/12/11 03:00:21;;;;;;;;;;;7.90;99.90;;;;;;5070592;28;19961;-76
2021/12/11 03:02:50;;;;;;;;;;;8.00;99.90;;;;;;5071409;28;19924;-76
2021/12/11 03:05:19;;;;;;;;;;;7.90;99.90;;;;;;5070743;28;20022;-75
2021/12/11 03:07:50;;;;;;;;;;;7.90;99.90;;;;;;5070641;28;19995;-76
2021/12/11 03:10:17;;;;;;;;;;;8.00;99.90;;;;;;5070643;28;20089;-77
2021/12/11 03:12:44;;;;;;;;;;;7.90;99.90;;;;;;5072501;28;20302;-77
2021/12/11 03:15:11;;;;;;;;;;;7.90;99.90;;;;;;5070441;28;20464;-76
2021/12/11 03:17:37;;;;;;;;;;;7.90;99.90;;;;;;5071968;28;19908;-77
2021/12/11 03:20:04;;;;;;;;;;;7.90;99.90;;;;;;5070226;28;19916;-76
2021/12/11 03:22:31;;;;;;;;;;;7.90;99.90;;;;;;5071913;28;19908;-76
2021/12/11 03:24:57;;;;;;;;;;;7.90;99.90;;;;;;5071596;28;19915;-76
2021/12/11 03:27:23;;;;;;;;;;;7.80;99.90;;;;;;5071839;28;20364;-75
2021/12/11 03:29:49;;;;;;;;;;;7.90;99.90;;;;;;5071935;28;19955;-76
2021/12/11 03:32:15;;;;;;;;;;;7.90;99.90;;;;;;5071749;28;19952;-76
2021/12/11 03:34:41;;;;;;;;;;;7.80;99.90;;;;;;5083692;28;20018;-76
2021/12/11 03:37:08;;;;;;;;;;;7.90;99.90;;;;;;5090912;28;19976;-76
2021/12/11 03:39:39;;;;;;;;;;;7.90;99.90;;;;;;5080817;28;19912;-76
2021/12/11 03:42:10;;;;;;;;;;;7.90;99.90;;;;;;5070372;28;19908;-76
2021/12/11 03:44:36;;;;;;;;;;;7.90;99.90;;;;;;5071622;28;19917;-75
2021/12/11 03:47:07;;;;;;;;;;;7.90;99.90;;;;;;5071341;28;19904;-76
2021/12/11 03:49:33;;;;;;;;;;;7.90;99.90;;;;;;5070909;28;19921;-76
2021/12/11 03:51:59;;;;;;;;;;;7.90;99.90;;;;;;5071464;28;19915;-75
2021/12/11 03:54:26;;;;;;;;;;;7.90;99.90;;;;;;5071529;28;19912;-75
2021/12/11 03:56:52;;;;;;;;;;;7.90;99.90;;;;;;5071452;28;19957;-75
2021/12/11 03:59:18;;;;;;;;;;;7.90;99.90;;;;;;5069949;28;19916;-78
2021/12/11 04:01:45;;;;;;;;;;;7.90;99.90;;;;;;5071201;28;19909;-76
2021/12/11 04:04:19;;;;;;;;;;;8.00;99.90;;;;;;5071002;28;19916;-75
2021/12/11 04:06:45;;;;;;;;;;;7.90;99.90;;;;;;5071057;28;19908;-75
2021/12/11 04:09:12;;;;;;;;;;;7.90;99.90;;;;;;5071369;28;19908;-75
2021/12/11 04:11:38;;;;;;;;;;;7.90;99.90;;;;;;5070739;28;19954;-75
2021/12/11 04:14:06;;;;;;;;;;;7.90;99.90;;;;;;5071227;28;20364;-76
2021/12/11 04:16:32;;;;;;;;;;;7.90;99.90;;;;;;5070995;28;19926;-76
2021/12/11 04:18:58;;;;;;;;;;;7.90;99.90;;;;;;5071515;28;19916;-76
2021/12/11 04:21:24;;;;;;;;;;;7.90;99.90;;;;;;5071222;28;19908;-75
2021/12/11 04:23:49;;;;;;;;;;;7.90;99.90;;;;;;5071301;28;19939;-74
2021/12/11 04:26:15;;;;;;;;;;;7.90;99.90;;;;;;5070563;28;19912;-74
2021/12/11 04:28:41;;;;;;;;;;;7.90;99.90;;;;;;5070956;28;20024;-77
2021/12/11 04:31:12;;;;;;;;;;;7.90;99.90;;;;;;5069655;28;19999;-76
2021/12/11 04:33:40;;;;;;;;;;;7.90;99.90;;;;;;5071240;28;19909;-76
2021/12/11 04:36:09;;;;;;;;;;;8.00;99.90;;;;;;5070838;28;20275;-76
2021/12/11 04:38:35;;;;;;;;;;;8.00;99.90;;;;;;5069855;28;20360;-76
2021/12/11 04:41:02;;;;;;;;;;;7.90;99.90;;;;;;5069641;28;19918;-77
2021/12/11 04:43:28;;;;;;;;;;;8.00;99.90;;;;;;5069673;28;19908;-77
2021/12/11 04:45:56;;;;;;;;;;;8.00;99.90;;;;;;5071127;28;19909;-76
2021/12/11 04:51:18;;;;;;;;;;;7.90;99.90;;;;;;5071003;28;19908;-77
2021/12/11 05:14:37;;;;;;;;;;;7.80;99.90;;;;;;5070728;28;19916;-76
2021/12/11 05:17:03;;;;;;;;;;;7.80;99.90;;;;;;5071773;28;19908;-76
2021/12/11 05:19:29;;;;;;;;;;;7.80;99.90;;;;;;5072875;28;19919;-75
2021/12/11 05:21:55;;;;;;;;;;;7.80;99.90;;;;;;5073972;28;19904;-76
2021/12/11 05:24:20;;;;;;;;;;;7.80;99.90;;;;;;5074209;28;19916;-75
2021/12/11 05:26:46;;;;;;;;;;;7.70;99.90;;;;;;5074357;28;20005;-77
2021/12/11 05:29:12;;;;;;;;;;;7.70;99.90;;;;;;5074522;28;19942;-75
2021/12/11 05:31:38;;;;;;;;;;;7.70;99.90;;;;;;5073612;28;20352;-76
2021/12/11 05:34:04;;;;;;;;;;;7.70;99.90;;;;;;5072491;28;20379;-75
2021/12/11 05:36:31;;;;;;;;;;;7.80;99.90;;;;;;5073831;28;19935;-75
2021/12/11 05:38:58;;;;;;;;;;;7.80;99.90;;;;;;5074010;28;19920;-75
2021/12/11 05:41:23;;;;;;;;;;;7.80;99.90;;;;;;5072599;28;20327;-76
2021/12/11 05:43:49;;;;;;;;;;;7.80;99.90;;;;;;5073442;28;19926;-76
2021/12/11 05:46:15;;;;;;;;;;;7.80;99.90;;;;;;5072661;28;19911;-75
2021/12/11 05:48:42;;;;;;;;;;;7.80;99.90;;;;;;5073435;28;20046;-76
2021/12/11 05:51:08;;;;;;;;;;;7.80;99.90;;;;;;5074010;28;19912;-75
2021/12/11 05:53:34;;;;;;;;;;;7.80;99.90;;;;;;5071993;28;20019;-75
2021/12/11 05:56:06;;;;;;;;;;;7.80;99.90;;;;;;5073263;28;20019;-76
2021/12/11 06:01:17;;;;;;;;;;;7.80;99.90;;;;;;5073508;28;19950;-75
2021/12/11 06:03:43;;;;;;;;;;;7.80;99.90;;;;;;5073012;28;20240;-76
2021/12/11 06:06:09;;;;;;;;;;;7.80;99.90;;;;;;5073427;28;19908;-76
2021/12/11 06:08:34;;;;;;;;;;;7.80;99.90;;;;;;5072764;28;19955;-76
2021/12/11 06:11:00;;;;;;;;;;;7.80;99.90;;;;;;5072919;28;19908;-76
2021/12/11 06:13:28;;;;;;;;;;;7.80;99.90;;;;;;5071901;28;20023;-75
2021/12/11 06:15:54;;;;;;;;;;;7.80;99.90;;;;;;5073243;28;19983;-77
2021/12/11 06:18:20;;;;;;;;;;;7.80;99.90;;;;;;5071738;28;19920;-75
2021/12/11 06:20:47;;;;;;;;;;;7.80;99.90;;;;;;5073041;28;19908;-75
2021/12/11 06:23:13;;;;;;;;;;;7.90;99.90;;;;;;5073417;28;19912;-75
2021/12/11 06:25:39;;;;;;;;;;;7.90;99.90;;;;;;5073233;28;20343;-77
2021/12/11 06:28:05;;;;;;;;;;;7.90;99.90;;;;;;5072964;28;19913;-77
2021/12/11 06:30:31;;;;;;;;;;;7.90;99.90;;;;;;5072633;28;19908;-77
2021/12/11 06:32:57;;;;;;;;;;;7.90;99.90;;;;;;5073051;28;20256;-77
2021/12/11 06:35:25;;;;;;;;;;;7.90;99.90;;;;;;5072925;28;19911;-77
2021/12/11 06:37:51;;;;;;;;;;;7.90;99.90;;;;;;5072415;28;19912;-77
2021/12/11 06:40:17;;;;;;;;;;;7.90;99.90;;;;;;5072670;28;20030;-77
2021/12/11 06:42:43;;;;;;;;;;;7.90;99.90;;;;;;5073087;28;19904;-77
2021/12/11 06:45:08;;;;;;;;;;;8.00;99.90;;;;;;5072920;28;19904;-78
2021/12/11 06:47:34;;;;;;;;;;;8.00;99.90;;;;;;5072898;28;19951;-76
2021/12/11 06:50:01;;;;;;;;;;;8.00;99.90;;;;;;5072153;28;19931;-77
2021/12/11 06:52:27;;;;;;;;;;;7.90;99.90;;;;;;5072702;28;19912;-76
2021/12/11 06:54:53;;;;;;;;;;;8.00;99.90;;;;;;5072462;28;19998;-77
2021/12/11 06:57:19;;;;;;;;;;;7.90;99.90;;;;;;5071607;28;19904;-76
2021/12/11 06:59:45;;;;;;;;;;;8.00;99.90;;;;;;5072567;28;19912;-77
2021/12/11 07:02:10;;;;;;;;;;;8.00;99.90;;;;;;5072905;28;19908;-76
2021/12/11 07:04:36;;;;;;;;;;;8.00;99.90;;;;;;5072277;28;19912;-76
2021/12/11 07:07:02;;;;;;;;;;;8.00;99.90;;;;;;5072248;28;19914;-75
2021/12/11 07:09:29;;;;;;;;;;;7.90;99.90;;;;;;5071267;28;20028;-76
2021/12/11 07:11:55;;;;;;;;;;;7.90;99.90;;;;;;5070694;28;19908;-77
2021/12/11 07:14:22;;;;;;;;;;;7.90;99.90;;;;;;5072700;28;20256;-77
2021/12/11 07:16:48;;;;;;;;;;;7.90;99.90;;;;;;5070703;28;19999;-76
2021/12/11 07:19:14;;;;;;;;;;;7.90;99.90;;;;;;5070463;28;19912;-77
2021/12/11 07:21:40;;;;;;;;;;;7.90;99.90;;;;;;5071959;28;19911;-76
2021/12/11 07:24:07;;;;;;;;;;;7.90;99.90;;;;;;5070260;28;19913;-76
2021/12/11 07:26:34;;;;;;;;;;;7.90;99.90;;;;;;5070408;28;19913;-76
2021/12/11 07:29:03;;;;;;;;;;;7.90;99.90;;;;;;5070317;28;19928;-76
2021/12/11 07:31:28;;;;;;;;;;;7.90;99.90;;;;;;5071410;28;19915;-77
2021/12/11 07:33:55;;;;;;;;;;;7.90;99.90;;;;;;5071686;28;20343;-77
2021/12/11 07:36:21;;;;;;;;;;;7.90;99.90;;;;;;5070238;28;19932;-76
2021/12/11 07:38:47;;;;;;;;;;;7.90;99.90;;;;;;5070552;28;19916;-75
2021/12/11 07:41:13;;;;;;;;;;;7.90;99.90;;;;;;5069930;28;19914;-76
2021/12/11 07:43:39;;;;;;;;;;;7.90;99.90;;;;;;5071598;28;20278;-77
2021/12/11 07:46:06;;;;;;;;;;;7.90;99.90;;;;;;5070190;28;19904;-77
2021/12/11 07:48:32;;;;;;;;;;;7.90;99.90;;;;;;5071309;28;19938;-75
2021/12/11 07:50:58;;;;;;;;;;;7.90;99.90;;;;;;5071168;28;19908;-76
2021/12/11 07:53:24;;;;;;;;;;;7.90;99.90;;;;;;5069787;28;19908;-76
2021/12/11 07:55:50;;;;;;;;;;;8.00;99.90;;;;;;5071111;28;19908;-76
2021/12/11 07:58:16;;;;;;;;;;;7.90;99.90;;;;;;5069984;28;19916;-77
2021/12/11 08:00:43;;;;;;;;;;;7.90;99.90;;;;;;5069595;28;19912;-77
2021/12/11 08:03:09;;;;;;;;;;;7.80;99.90;;;;;;5070168;28;19909;-76
2021/12/11 08:05:35;;;;;;;;;;;7.90;99.90;;;;;;5069533;28;19919;-77
2021/12/11 08:08:05;;;;;;;;;;;7.80;99.90;;;;;;5071386;28;19924;-77
2021/12/11 08:10:32;;;;;;;;;;;7.80;99.90;;;;;;5069451;28;19909;-77
2021/12/11 08:12:59;;;;;;;;;;;7.70;99.90;;;;;;5071840;28;20037;-77
2021/12/11 08:15:24;;;;;;;;;;;7.70;99.90;;;;;;5071070;28;19947;-77
2021/12/11 08:17:54;;;;;;;;;;;7.70;99.90;;;;;;5070373;28;20377;-77
2021/12/11 08:20:27;;;;;;;;;;;7.60;99.90;;;;;;5070807;28;19916;-76
2021/12/11 08:22:53;;;;;;;;;;;7.60;99.90;;;;;;5071632;28;19973;-77
2021/12/11 08:25:19;;;;;;;;;;;7.60;99.90;;;;;;5069303;28;20360;-76
2021/12/11 08:27:45;;;;;;;;;;;7.60;99.90;;;;;;5071207;28;19908;-76
2021/12/11 08:30:11;;;;;;;;;;;7.60;99.90;;;;;;5070418;28;19962;-77
2021/12/11 08:32:37;;;;;;;;;;;7.60;99.90;;;;;;5070869;28;20007;-76
2021/12/11 08:35:05;;;;;;;;;;;7.50;99.90;;;;;;5070869;28;19927;-77
2021/12/11 08:37:31;;;;;;;;;;;7.50;99.90;;;;;;5070964;28;19912;-76
2021/12/11 08:39:57;;;;;;;;;;;7.50;99.90;;;;;;5069056;28;20044;-76
2021/12/11 08:42:24;;;;;;;;;;;7.50;99.90;;;;;;5070903;28;19962;-76
2021/12/11 08:44:53;;;;;;;;;;;7.50;99.90;;;;;;5071021;28;19908;-76
2021/12/11 08:47:22;;;;;;;;;;;7.40;99.90;;;;;;5071318;28;19908;-77
2021/12/11 08:49:48;;;;;;;;;;;7.40;99.90;;;;;;5071133;28;20393;-77
2021/12/11 08:52:14;;;;;;;;;;;7.40;99.90;;;;;;5075380;28;19993;-76
2021/12/11 08:54:40;;;;;;;;;;;7.30;99.90;;;;;;5075477;28;19912;-77
2021/12/11 08:57:07;;;;;;;;;;;7.30;99.90;;;;;;5073511;28;19999;-76
2021/12/11 08:59:34;;;;;;;;;;;7.20;99.90;;;;;;5074670;28;20395;-75
2021/12/11 09:02:09;;;;;;;;;;;7.20;99.90;;;;;;5074680;28;19916;-77
2021/12/11 09:04:39;;;;;;;;;;;7.20;99.90;;;;;;5073406;28;20006;-77
2021/12/11 09:07:14;;;;;;;;;;;7.20;99.90;;;;;;5075276;28;20377;-76
2021/12/11 09:09:45;;;;;;;;;;;7.20;99.90;;;;;;5074178;28;19913;-77
2021/12/11 09:12:20;;;;;;;;;;;7.20;99.90;;;;;;5075224;28;20359;-76
2021/12/11 09:14:49;;;;;;;;;;;7.20;99.90;;;;;;5073919;28;19919;-77
2021/12/11 09:17:22;;;;;;;;;;;7.10;99.90;;;;;;5074959;28;20363;-76
2021/12/11 09:19:51;;;;;;;;;;;7.10;99.90;;;;;;5072925;28;19951;-76
2021/12/11 09:22:17;;;;;;;;;;;7.20;99.90;;;;;;5072784;28;19912;-76
2021/12/11 09:24:58;;;;;;;;;;;7.20;99.90;;;;;;5073274;28;19913;-77
2021/12/11 09:27:30;;;;;;;;;;;7.20;99.90;;;;;;5074285;28;19969;-76
2021/12/11 09:30:02;;;;;;;;;;;7.20;99.90;;;;;;5072543;28;19919;-76
2021/12/11 09:32:51;;;;;;;;;;;7.20;99.90;;;;;;5074274;28;19908;-77
2021/12/11 09:35:17;;;;;;;;;;;7.20;99.90;;;;;;5064248;28;19954;-77
2021/12/11 09:37:44;;;;;;;;;;;7.10;99.90;;;;;;5073069;28;19904;-76
2021/12/11 09:40:29;;;;;;;;;;;7.10;99.90;;;;;;5073192;28;19977;-77
2021/12/11 09:42:55;;;;;;;;;;;7.10;99.90;;;;;;5072627;28;19923;-75
2021/12/11 09:45:23;;;;;;;;;;;7.10;99.90;;;;;;5072328;28;19908;-76
2021/12/11 09:47:56;;;;;;;;;;;7.10;99.90;;;;;;5073832;28;19919;-77
2021/12/11 09:50:24;;;;;;;;;;;7.00;99.90;;;;;;5072772;28;20343;-76
2021/12/11 09:52:50;;;;;;;;;;;7.10;99.90;;;;;;5072881;28;20027;-76
2021/12/11 09:55:17;;;;;;;;;;;7.00;99.90;;;;;;5074011;28;19943;-77
2021/12/11 09:57:46;;;;;;;;;;;6.90;99.90;;;;;;5074150;28;19904;-78
2021/12/11 10:00:32;;;;;;;;;;;7.00;99.90;;;;;;5072059;28;19999;-76
2021/12/11 10:02:58;;;;;;;;;;;6.90;99.90;;;;;;5069205;28;20339;-78
2021/12/11 10:05:32;;;;;;;;;;;6.90;99.90;;;;;;5072251;28;19950;-76
2021/12/11 10:10:49;;;;;;;;;;;6.80;99.90;;;;;;5050559;28;20276;-76
2021/12/11 10:13:15;;;;;;;;;;;6.80;99.90;;;;;;5053654;28;19917;-77
2021/12/11 10:15:41;;;;;;;;;;;6.80;99.90;;;;;;5052442;28;20302;-76
2021/12/11 10:18:13;;;;;;;;;;;6.80;99.90;;;;;;5053469;28;19912;-75
2021/12/11 10:20:47;;;;;;;;;;;6.80;99.90;;;;;;5071275;28;19929;-77
2021/12/11 10:23:14;;;;;;;;;;;6.80;99.90;;;;;;5072008;28;19916;-77
2021/12/11 10:25:41;;;;;;;;;;;6.80;99.90;;;;;;5073179;28;20379;-77
2021/12/11 10:28:10;;;;;;;;;;;6.80;99.90;;;;;;5073987;28;19912;-76
2021/12/11 10:30:39;;;;;;;;;;;6.80;99.90;;;;;;5071678;28;19912;-77
2021/12/11 10:33:05;;;;;;;;;;;6.80;99.90;;;;;;5071854;28;20352;-77
2021/12/11 10:35:33;;;;;;;;;;;6.80;99.90;;;;;;5073359;28;19911;-79
2021/12/11 10:38:02;;;;;;;;;;;6.70;99.90;;;;;;5073469;28;19996;-77
2021/12/11 10:40:31;;;;;;;;;;;6.70;99.90;;;;;;5089648;28;19953;-77
2021/12/11 10:43:00;;;;;;;;;;;6.70;99.90;;;;;;5093210;28;19999;-76
2021/12/11 10:45:27;;;;;;;;;;;6.70;99.90;;;;;;5074589;28;20358;-76
2021/12/11 10:47:55;;;;;;;;;;;6.70;99.90;;;;;;5073297;28;19955;-77
2021/12/11 10:50:24;;;;;;;;;;;6.70;99.90;;;;;;5070708;28;19981;-77
2021/12/11 10:52:50;;;;;;;;;;;6.60;99.90;;;;;;5072828;28;19920;-77
2021/12/11 10:55:17;;;;;;;;;;;6.60;99.90;;;;;;5072086;28;19910;-76
2021/12/11 10:57:43;;;;;;;;;;;6.60;99.90;;;;;;5072459;28;19905;-77
2021/12/11 11:00:23;;;;;;;;;;;6.60;99.90;;;;;;5072474;28;19961;-76
2021/12/11 11:02:48;;;;;;;;;;;6.60;99.90;;;;;;5070929;28;19943;-75
2021/12/11 11:05:16;;;;;;;;;;;6.60;99.90;;;;;;5071769;28;20398;-76
2021/12/11 11:07:43;;;;;;;;;;;6.70;99.90;;;;;;5070827;28;20401;-77
2021/12/11 11:10:12;;;;;;;;;;;6.60;99.90;;;;;;5071163;28;19955;-76
2021/12/11 11:12:38;;;;;;;;;;;6.60;99.90;;;;;;5070521;28;20220;-76
2021/12/11 11:15:05;;;;;;;;;;;6.50;99.90;;;;;;5071981;28;19919;-77
2021/12/11 11:17:32;;;;;;;;;;;6.50;99.90;;;;;;5070996;28;19900;-76
2021/12/11 11:19:58;;;;;;;;;;;6.50;99.90;;;;;;5070100;28;20035;-76
2021/12/11 11:22:25;;;;;;;;;;;6.50;99.90;;;;;;5070872;28;20431;-77
2021/12/11 11:24:54;;;;;;;;;;;6.50;99.90;;;;;;5071872;28;20053;-76
2021/12/11 11:27:19;;;;;;;;;;;6.50;99.90;;;;;;5072229;28;19981;-76
2021/12/11 11:29:46;;;;;;;;;;;6.50;99.90;;;;;;5070174;28;19991;-76
2021/12/11 11:32:14;;;;;;;;;;;6.50;99.90;;;;;;5072162;28;19923;-76
2021/12/11 11:34:41;;;;;;;;;;;6.50;99.90;;;;;;5070185;28;19904;-75
2021/12/11 11:37:15;;;;;;;;;;;6.50;99.90;;;;;;5070790;28;19908;-75
2021/12/11 11:39:41;;;;;;;;;;;6.50;99.90;;;;;;5069407;28;19995;-79
2021/12/11 11:42:09;;;;;;;;;;;6.50;99.90;;;;;;5070542;28;19942;-76
2021/12/11 11:44:35;;;;;;;;;;;6.50;99.90;;;;;;5071615;28;19905;-76
2021/12/11 11:47:03;;;;;;;;;;;6.50;99.90;;;;;;5071939;28;19905;-75
2021/12/11 11:49:30;;;;;;;;;;;6.50;99.90;;;;;;5071018;28;19956;-77
2021/12/11 11:51:57;;;;;;;;;;;6.50;99.90;;;;;;5070196;28;19916;-77
2021/12/11 11:54:26;;;;;;;;;;;6.50;99.90;;;;;;5071751;28;19926;-77
2021/12/11 11:56:57;;;;;;;;;;;6.50;99.90;;;;;;5071847;28;19915;-75
2021/12/11 11:59:22;;;;;;;;;;;6.50;99.90;;;;;;5071511;28;19908;-76
2021/12/11 12:01:52;;;;;;;;;;;6.60;99.90;;;;;;5070859;28;20083;-76
2021/12/11 12:04:19;;;;;;;;;;;6.50;99.90;;;;;;5071155;28;19961;-76
2021/12/11 12:06:48;;;;;;;;;;;6.50;99.90;;;;;;5071959;28;19908;-75
2021/12/11 12:09:14;;;;;;;;;;;6.60;99.90;;;;;;5070794;28;19908;-78
2021/12/11 12:11:40;;;;;;;;;;;6.60;99.90;;;;;;5069987;28;19952;-76
2021/12/11 12:14:09;;;;;;;;;;;7.20;99.90;;;;;;5071293;28;19920;-76
2021/12/11 12:16:35;;;;;;;;;;;6.60;99.90;;;;;;5070265;28;19908;-76
2021/12/11 12:19:02;;;;;;;;;;;6.60;99.90;;;;;;5071175;28;19916;-76
2021/12/11 12:21:29;;;;;;;;;;;6.60;99.90;;;;;;5071394;28;19912;-75
2021/12/11 12:23:54;;;;;;;;;;;6.60;99.90;;;;;;5071377;28;19909;-75
2021/12/11 12:26:23;;;;;;;;;;;6.60;99.90;;;;;;5075035;28;20018;-76
2021/12/11 12:28:49;;;;;;;;;;;6.60;99.90;;;;;;5075305;28;19916;-75
2021/12/11 12:31:18;;;;;;;;;;;6.60;99.90;;;;;;5074997;28;19970;-77
2021/12/11 12:33:44;;;;;;;;;;;6.60;99.90;;;;;;5075278;28;19912;-75
2021/12/11 12:36:10;;;;;;;;;;;6.60;99.90;;;;;;5075724;28;19908;-76
2021/12/11 12:38:37;;;;;;;;;;;7.60;99.90;;;;;;5073842;28;19915;-76
2021/12/11 12:41:21;;;;;;;;;;;6.50;99.90;;;;;;5075023;28;19962;-76
2021/12/11 12:46:42;;;;;;;;;;;6.50;99.90;;;;;;5075071;28;19908;-76
2021/12/11 12:49:07;;;;;;;;;;;6.40;99.90;;;;;;5073130;28;19931;-75
2021/12/11 12:51:33;;;;;;;;;;;6.40;99.90;;;;;;5074987;28;19912;-75
2021/12/11 12:54:01;;;;;;;;;;;6.40;99.90;;;;;;5074406;28;19908;-74
2021/12/11 12:56:28;;;;;;;;;;;6.40;99.90;;;;;;5073326;28;19904;-75
2021/12/11 12:59:15;;;;;;;;;;;6.40;99.90;;;;;;5073881;28;19954;-75
2021/12/11 13:02:13;;;;;;;;;;;6.40;99.90;;;;;;5074546;28;20360;-76
2021/12/11 13:04:42;;;;;;;;;;;6.40;99.90;;;;;;5052874;28;20523;-76
2021/12/11 13:07:11;;;;;;;;;;;6.40;99.90;;;;;;5054957;28;20318;-75
2021/12/11 13:10:04;;;;;;;;;;;6.40;99.90;;;;;;5064947;28;20337;-76
2021/12/11 13:12:32;;;;;;;;;;;6.40;99.90;;;;;;5073519;28;20379;-74
2021/12/11 13:15:00;;;;;;;;;;;6.40;99.90;;;;;;5074150;28;20271;-76
2021/12/11 13:17:33;;;;;;;;;;;6.30;99.90;;;;;;5072795;28;19913;-76
2021/12/11 13:20:03;;;;;;;;;;;6.30;99.90;;;;;;5087885;28;19904;-77
2021/12/11 13:22:37;;;;;;;;;;;6.30;99.90;;;;;;5094452;28;19912;-76
2021/12/11 13:25:07;;;;;;;;;;;6.30;99.90;;;;;;5078190;28;19935;-74
2021/12/11 13:27:33;;;;;;;;;;;6.30;99.90;;;;;;5074225;28;19935;-76
2021/12/11 13:30:01;;;;;;;;;;;6.30;99.90;;;;;;5072433;28;19904;-77
2021/12/11 13:32:28;;;;;;;;;;;6.30;99.90;;;;;;5072911;28;19946;-75
2021/12/11 13:34:55;;;;;;;;;;;6.20;99.90;;;;;;5073746;28;19913;-76
2021/12/11 13:37:22;;;;;;;;;;;6.20;99.90;;;;;;5072810;28;20023;-75
2021/12/11 13:39:49;;;;;;;;;;;6.20;99.90;;;;;;5071924;28;19912;-76
2021/12/11 13:42:19;;;;;;;;;;;6.20;99.90;;;;;;5073679;28;19951;-75
2021/12/11 13:44:46;;;;;;;;;;;6.20;99.90;;;;;;5084814;28;20356;-76
2021/12/11 13:47:14;;;;;;;;;;;6.20;99.90;;;;;;5092655;28;19920;-79
2021/12/11 13:49:40;;;;;;;;;;;6.20;99.90;;;;;;5081876;28;19916;-76
2021/12/11 13:52:06;;;;;;;;;;;6.20;99.90;;;;;;5073222;28;20352;-76
2021/12/11 13:54:32;;;;;;;;;;;6.20;99.90;;;;;;5073310;28;19904;-75
2021/12/11 13:56:59;;;;;;;;;;;6.20;99.90;;;;;;5073119;28;19916;-76
2021/12/11 13:59:25;;;;;;;;;;;6.20;99.90;;;;;;5072939;28;19905;-75
2021/12/11 14:01:52;;;;;;;;;;;6.20;99.90;;;;;;5072075;28;19908;-76
2021/12/11 14:04:18;;;;;;;;;;;6.20;99.90;;;;;;5073019;28;19920;-75
2021/12/11 14:06:49;;;;;;;;;;;6.30;99.90;;;;;;5073405;28;19908;-76
2021/12/11 14:09:21;;;;;;;;;;;6.20;99.90;;;;;;5072713;28;19965;-76
2021/12/11 14:11:46;;;;;;;;;;;6.20;99.90;;;;;;5071456;28;20297;-76
2021/12/11 14:14:12;;;;;;;;;;;6.20;99.90;;;;;;5071388;28;19957;-76
2021/12/11 14:16:38;;;;;;;;;;;6.20;99.90;;;;;;5071584;28;19908;-76
2021/12/11 14:19:05;;;;;;;;;;;6.20;99.90;;;;;;5072603;28;20351;-76
2021/12/11 14:21:31;;;;;;;;;;;6.20;99.90;;;;;;5073058;28;19912;-76
2021/12/11 14:23:57;;;;;;;;;;;6.20;99.90;;;;;;5073058;28;19912;-76
2021/12/11 14:26:23;;;;;;;;;;;6.20;99.90;;;;;;5071076;28;20367;-76
2021/12/11 14:28:50;;;;;;;;;;;6.20;99.90;;;;;;5071249;28;19919;-75
2021/12/11 14:31:17;;;;;;;;;;;6.20;99.90;;;;;;5071138;28;19912;-76
2021/12/11 14:33:43;;;;;;;;;;;6.20;99.90;;;;;;5071702;28;19963;-76
2021/12/11 14:36:11;;;;;;;;;;;6.20;99.90;;;;;;5073077;28;19908;-77
2021/12/11 14:38:37;;;;;;;;;;;6.20;99.90;;;;;;5070894;28;19924;-76
2021/12/11 14:41:04;;;;;;;;;;;6.20;99.90;;;;;;5072768;28;19980;-75
2021/12/11 14:43:30;;;;;;;;;;;6.20;99.90;;;;;;5070561;28;20280;-75
2021/12/11 14:45:57;;;;;;;;;;;6.30;99.90;;;;;;5072602;28;20023;-75
2021/12/11 14:48:23;;;;;;;;;;;6.20;99.90;;;;;;5071880;28;19908;-75
2021/12/11 14:50:57;;;;;;;;;;;6.20;99.90;;;;;;5072009;28;19921;-76
2021/12/11 14:53:25;;;;;;;;;;;6.20;99.90;;;;;;5070740;28;19987;-75
2021/12/11 14:55:53;;;;;;;;;;;6.30;99.90;;;;;;5072400;28;20000;-76
2021/12/11 14:58:18;;;;;;;;;;;6.30;99.90;;;;;;5070547;28;19916;-75
2021/12/11 15:00:47;;;;;;;;;;;6.20;99.90;;;;;;5071957;28;20247;-77
2021/12/11 15:03:13;;;;;;;;;;;6.20;99.90;;;;;;5070613;28;19948;-76
2021/12/11 15:05:42;;;;;;;;;;;6.20;99.90;;;;;;5071827;28;19952;-76
2021/12/11 15:08:13;;;;;;;;;;;6.30;99.90;;;;;;5070496;28;19920;-76
2021/12/11 15:10:40;;;;;;;;;;;6.30;99.90;;;;;;5071355;28;19912;-76